Minerva Zen — SVBN3 — position and weather

sailwx.info

Track history (hours):
 
Tides and Currents Weather Stations Pressure Air Temp Water Temp Dewpoint Dewpoint Depression Visibility Wind Speed Wind Dir Waves Ship Positions

Minerva Zen

Last reported at 2015-May-15 10:32 UTC. Time now 2015-May-26 13:48 UTC.
Position N 40°25' W 069°11'.
Warning: this ship's position is 11 days out of date.

Length 183 m; draft 8 m.

Type: Ship. MMSI: 241190000.

Date/timePositionNaut miles runAvg speedWind from/ knotsBaromVisibWave heightAir tempDewpointWater temp
2015-May-15 10:32N 40°25' W 069°11'1010.0
2015-May-15 09:33N 40°25' W 069°24'10 9.8
2015-May-15 08:33N 40°25' W 069°36'10 9.9
2015-May-15 07:34N 40°24' W 069°49'10 9.9
2015-May-15 06:33N 40°24' W 070°02'10 9.8
2015-May-15 05:33N 40°24' W 070°15'1010.0
2015-May-15 04:33N 40°24' W 070°28'1010.2
2015-May-15 03:33N 40°24' W 070°42'1110.6
2015-May-15 02:33N 40°24' W 070°56'10 9.9
2015-May-15 01:33N 40°23' W 071°09'1010.1
2015-May-15 00:34N 40°23' W 071°22'10 9.9
2015-May-14 23:33N 40°23' W 071°35'10 9.9
2015-May-14 22:33N 40°23' W 071°48'10 9.7
2015-May-14 21:33N 40°23' W 072°01'10 9.7
2015-May-14 20:34N 40°23' W 072°13'10 9.8
2015-May-14 19:33N 40°22' W 072°26'1010.0
2015-May-14 18:33N 40°22' W 072°39'10 9.6
2015-May-14 17:33N 40°22' W 072°52'10 9.8
2015-May-14 16:33N 40°22' W 073°05'10 9.9
2015-May-14 15:31N 40°23' W 073°18'1010.0
2015-May-14 14:31N 40°24' W 073°31'8 3.7
2015-May-14 12:13N 40°29' W 073°41'0 0.0
2015-May-14 11:31N 40°29' W 073°41'0 0.0
2015-May-14 10:31N 40°29' W 073°41'0 0.0
2015-May-14 09:31N 40°29' W 073°41'0 0.0
2015-May-14 08:31N 40°29' W 073°41'0 0.0
2015-May-14 07:31N 40°29' W 073°41'0 0.0
2015-May-14 06:28N 40°29' W 073°41'0 0.0
2015-May-14 05:28N 40°29' W 073°41'0 0.0
2015-May-14 04:22N 40°29' W 073°41'0 0.0
2015-May-14 03:31N 40°29' W 073°41'0 0.0
2015-May-14 02:13N 40°29' W 073°41'0 0.0
2015-May-14 01:19N 40°29' W 073°41'0 0.0
2015-May-14 00:16N 40°29' W 073°41'0 0.0
2015-May-13 22:28N 40°29' W 073°41'0 0.0
2015-May-13 21:28N 40°29' W 073°41'0 0.0
2015-May-13 20:31N 40°29' W 073°41'0 0.1
2015-May-13 19:28N 40°29' W 073°41'0 0.0
2015-May-13 18:22N 40°29' W 073°41'0 0.1
2015-May-13 17:28N 40°29' W 073°41'0 0.1
2015-May-13 16:31N 40°29' W 073°41'0 0.0
2015-May-13 15:28N 40°29' W 073°41'0 0.0
2015-May-13 13:04N 40°29' W 073°40'0 0.0
2015-May-13 12:25N 40°29' W 073°40'0 0.0
2015-May-13 11:31N 40°29' W 073°41'0 0.0
2015-May-13 10:19N 40°29' W 073°41'0 0.0
2015-May-13 09:10N 40°29' W 073°41'0 0.0
2015-May-13 08:31N 40°29' W 073°41'0 0.0
2015-May-13 06:13N 40°29' W 073°41'0 0.0
2015-May-13 05:31N 40°29' W 073°41'0 0.0
2015-May-13 04:28N 40°29' W 073°41'0 0.0
2015-May-13 03:31N 40°29' W 073°41'0 0.2
2015-May-13 02:25N 40°29' W 073°41'0 0.0
2015-May-13 01:31N 40°29' W 073°41'0 0.0
2015-May-13 00:31N 40°29' W 073°41'0 0.1
2015-May-12 23:31N 40°29' W 073°41'0 0.0
2015-May-12 22:28N 40°29' W 073°40'0 0.0
2015-May-12 21:28N 40°29' W 073°40'0 0.0
2015-May-12 20:31N 40°29' W 073°41'0 0.1
2015-May-12 19:13N 40°29' W 073°41'0 0.0
2015-May-12 18:31N 40°29' W 073°41'0 0.0
2015-May-12 17:31N 40°29' W 073°41'0 0.0
2015-May-12 16:31N 40°29' W 073°41'0 0.0
2015-May-12 15:31N 40°29' W 073°41'0 0.0
2015-May-12 14:28N 40°29' W 073°41'0 0.0
2015-May-12 13:28N 40°29' W 073°41'0 0.0
2015-May-12 12:25N 40°29' W 073°41'0 0.0
2015-May-12 11:31N 40°29' W 073°41'0 0.0
2015-May-12 10:31N 40°29' W 073°41'0 0.0
2015-May-12 09:31N 40°29' W 073°41'0 0.1
2015-May-12 08:25N 40°29' W 073°41'0 0.0
2015-May-12 07:31N 40°29' W 073°41'0 0.0
2015-May-12 06:28N 40°29' W 073°41'0 0.0
2015-May-12 05:31N 40°29' W 073°41'0 0.0
2015-May-12 04:31N 40°29' W 073°41'0 0.0
2015-May-12 03:31N 40°29' W 073°41'0 0.0
2015-May-12 02:31N 40°29' W 073°41'0 0.0
2015-May-12 01:31N 40°29' W 073°41'0 0.1
2015-May-12 00:29N 40°29' W 073°41'0 0.0
2015-May-11 23:28N 40°29' W 073°41'0 0.0
2015-May-11 22:31N 40°29' W 073°41'0 0.0
2015-May-11 21:28N 40°29' W 073°41'0 0.0
2015-May-11 20:31N 40°29' W 073°41'0 0.0
2015-May-11 19:31N 40°29' W 073°41'0 0.0
2015-May-11 18:31N 40°29' W 073°41'0 0.0
2015-May-11 17:31N 40°29' W 073°41'0 0.0
2015-May-11 16:31N 40°29' W 073°41'0 0.0
2015-May-11 15:31N 40°29' W 073°41'0 0.0
2015-May-11 14:31N 40°29' W 073°41'0 0.0
2015-May-11 13:31N 40°29' W 073°41'0 0.0
2015-May-11 12:31N 40°29' W 073°41'0 0.0
2015-May-11 11:31N 40°29' W 073°41'0 0.0
2015-May-11 10:31N 40°29' W 073°41'0 0.0
2015-May-11 09:28N 40°29' W 073°41'0 0.0
2015-May-11 08:31N 40°29' W 073°41'0 0.0
2015-May-11 07:31N 40°29' W 073°41'0 0.0
2015-May-11 06:31N 40°29' W 073°41'0 0.0
2015-May-11 05:31N 40°29' W 073°41'0 0.0
2015-May-11 04:31N 40°29' W 073°41'0 0.0
2015-May-11 03:31N 40°29' W 073°41'0 0.0
2015-May-11 02:31N 40°29' W 073°41'0 0.0
2015-May-11 01:31N 40°29' W 073°41'0 0.0
2015-May-11 00:31N 40°29' W 073°41'0 0.0
2015-May-10 23:31N 40°29' W 073°41'0 0.0
2015-May-10 22:31N 40°29' W 073°41'0 0.0
2015-May-10 21:28N 40°29' W 073°41'0 0.0
2015-May-10 20:31N 40°29' W 073°41'0 0.0
2015-May-10 19:31N 40°29' W 073°41'0 0.0
2015-May-10 18:31N 40°29' W 073°41'0 0.0
2015-May-10 17:31N 40°29' W 073°41'0 0.0
2015-May-10 16:31N 40°29' W 073°41'0 0.0
2015-May-10 15:31N 40°29' W 073°41'0 0.0
2015-May-10 14:31N 40°29' W 073°41'0 0.0
2015-May-10 13:28N 40°29' W 073°41'0 0.0
2015-May-10 12:28N 40°29' W 073°41'0 0.0
2015-May-10 11:31N 40°29' W 073°41'0 0.0
2015-May-10 10:31N 40°29' W 073°41'0 0.0
2015-May-10 09:31N 40°29' W 073°41'0 0.0
2015-May-10 08:31N 40°29' W 073°41'0 0.0
2015-May-10 07:31N 40°29' W 073°41'0 0.0
2015-May-10 06:31N 40°29' W 073°41'0 0.0
2015-May-10 05:31N 40°29' W 073°41'0 0.0
2015-May-10 04:31N 40°29' W 073°41'0 0.0
2015-May-10 03:31N 40°29' W 073°41'0 0.0
2015-May-10 02:31N 40°29' W 073°41'0 0.0
2015-May-10 01:31N 40°29' W 073°41'0 0.0
2015-May-10 00:28N 40°29' W 073°41'0 0.0
2015-May-09 23:31N 40°29' W 073°41'0 0.0
2015-May-09 22:31N 40°29' W 073°41'0 0.0
2015-May-09 21:31N 40°29' W 073°41'0 0.0
2015-May-09 20:28N 40°29' W 073°41'0 0.0
2015-May-09 19:31N 40°29' W 073°41'0 0.0
2015-May-09 18:31N 40°29' W 073°41'0 0.0
2015-May-09 17:31N 40°29' W 073°41'0 0.0
2015-May-09 16:28N 40°29' W 073°41'0 0.0
2015-May-09 15:31N 40°29' W 073°41'0 0.0
2015-May-09 14:31N 40°29' W 073°41'0 0.0
2015-May-09 13:31N 40°29' W 073°41'0 0.0
2015-May-09 12:31N 40°29' W 073°41'0 0.0
2015-May-09 11:31N 40°29' W 073°41'0 0.0
2015-May-09 10:31N 40°29' W 073°41'0 0.0
2015-May-09 09:31N 40°29' W 073°41'0 0.0
2015-May-09 08:31N 40°29' W 073°41'0 0.0
2015-May-09 07:28N 40°29' W 073°41'0 0.0
2015-May-09 06:31N 40°29' W 073°41'0 0.0
2015-May-09 05:31N 40°29' W 073°41'0 0.0
2015-May-09 04:31N 40°29' W 073°41'0 0.0
2015-May-09 03:31N 40°29' W 073°41'0 0.1
2015-May-09 02:31N 40°29' W 073°41'0 0.0
2015-May-09 01:31N 40°29' W 073°41'0 0.0
2015-May-09 00:31N 40°29' W 073°41'0 0.0
2015-May-08 23:31N 40°29' W 073°41'0 0.0
2015-May-08 22:31N 40°29' W 073°41'0 0.0
2015-May-08 21:31N 40°29' W 073°41'0 0.0
2015-May-08 20:31N 40°29' W 073°41'0 0.0
2015-May-08 19:31N 40°29' W 073°41'0 0.0
2015-May-08 18:31N 40°29' W 073°41'0 0.0
2015-May-08 17:31N 40°29' W 073°41'0 0.0
2015-May-08 16:31N 40°29' W 073°41'0 0.0
2015-May-08 15:31N 40°29' W 073°41'0 0.0
2015-May-08 14:31N 40°29' W 073°41'0 0.0
2015-May-08 13:34N 40°29' W 073°41'0 0.0
2015-May-08 12:31N 40°29' W 073°41'0 0.0
2015-May-08 11:31N 40°29' W 073°41'0 0.0
2015-May-08 10:28N 40°29' W 073°41'0 0.0
2015-May-08 09:31N 40°29' W 073°41'0 0.1
2015-May-08 08:31N 40°29' W 073°41'0 0.1
2015-May-08 07:31N 40°29' W 073°41'0 0.0
2015-May-08 06:33N 40°29' W 073°41'0 0.0
2015-May-08 05:34N 40°29' W 073°41'0 0.1
2015-May-08 04:33N 40°29' W 073°41'0 0.0
2015-May-08 03:31N 40°29' W 073°41'0 0.1
2015-May-08 02:31N 40°29' W 073°41'0 0.0
2015-May-08 01:31N 40°29' W 073°41'0 0.0
2015-May-08 00:32N 40°29' W 073°41'0 0.0
2015-May-07 23:31N 40°29' W 073°41'0 0.0
2015-May-07 22:31N 40°29' W 073°41'0 0.0
2015-May-07 21:31N 40°29' W 073°41'0 0.1
2015-May-07 20:31N 40°29' W 073°41'0 0.0
2015-May-07 19:31N 40°29' W 073°41'0 0.0
2015-May-07 18:31N 40°29' W 073°41'0 0.0
2015-May-07 17:31N 40°29' W 073°41'0 0.1
2015-May-07 16:31N 40°29' W 073°41'0 0.0
2015-May-07 15:31N 40°29' W 073°41'0 0.0
2015-May-07 14:31N 40°29' W 073°41'0 0.0
2015-May-07 13:31N 40°29' W 073°41'0 0.0
2015-May-07 12:31N 40°29' W 073°41'0 0.0
2015-May-07 11:31N 40°29' W 073°41'0 0.0
2015-May-07 10:28N 40°29' W 073°41'0 0.1
2015-May-07 09:31N 40°29' W 073°41'0 0.1
2015-May-07 08:31N 40°29' W 073°41'0 0.0
2015-May-07 07:31N 40°29' W 073°41'0 0.0
2015-May-07 06:31N 40°29' W 073°41'0 0.0
2015-May-07 05:31N 40°29' W 073°41'0 0.0
2015-May-07 04:31N 40°29' W 073°41'0 0.1
2015-May-07 03:31N 40°29' W 073°41'0 0.1
2015-May-07 02:31N 40°29' W 073°41'0 0.0
2015-May-07 01:31N 40°29' W 073°41'0 0.0
2015-May-07 00:31N 40°29' W 073°41'0 0.0
2015-May-06 23:31N 40°29' W 073°41'0 0.0
2015-May-06 22:31N 40°29' W 073°41'0 0.0
2015-May-06 21:31N 40°29' W 073°41'0 0.0
2015-May-06 20:31N 40°29' W 073°41'0 0.0
2015-May-06 19:31N 40°29' W 073°41'0 0.0
2015-May-06 18:31N 40°29' W 073°41'0 0.1
2015-May-06 17:22N 40°29' W 073°41'0 0.1
2015-May-06 16:31N 40°29' W 073°41'6 6.0
2015-May-06 15:33N 40°27' W 073°48'1211.7
2015-May-06 14:33N 40°33' W 074°02'7 7.0
2015-May-06 13:33N 40°39' W 074°06'0 0.0
2015-May-06 12:30N 40°39' W 074°06'0 0.0
2015-May-06 11:24N 40°39' W 074°06'0 0.0
2015-May-06 10:33N 40°39' W 074°06'0 0.0
2015-May-06 09:33N 40°39' W 074°06'0 0.0
2015-May-06 08:30N 40°39' W 074°06'0 0.0
2015-May-06 07:33N 40°39' W 074°06'0 0.0
2015-May-06 06:33N 40°39' W 074°06'0 0.0
2015-May-06 05:33N 40°39' W 074°06'0 0.0
2015-May-06 04:33N 40°39' W 074°06'0 0.0
2015-May-06 03:33N 40°39' W 074°06'0 0.0
2015-May-06 02:30N 40°39' W 074°06'0 0.0
2015-May-06 01:33N 40°39' W 074°06'0 0.0
2015-May-06 00:18N 40°39' W 074°06'0 0.0
2015-May-05 23:30N 40°39' W 074°06'0 0.0
2015-May-05 22:30N 40°39' W 074°06'0 0.0
2015-May-05 21:24N 40°39' W 074°06'0 0.0
2015-May-05 20:30N 40°39' W 074°06'0 0.0
2015-May-05 19:24N 40°39' W 074°06'0 0.0
2015-May-05 18:30N 40°39' W 074°06'0 0.0
2015-May-05 17:33N 40°39' W 074°06'2 2.4
2015-May-05 16:32N 40°38' W 074°03'0 0.2
2015-May-05 15:32N 40°39' W 074°03'0 0.0
2015-May-05 14:32N 40°39' W 074°03'0 0.0
2015-May-05 13:32N 40°39' W 074°03'0 0.0
2015-May-05 12:32N 40°39' W 074°03'0 0.1
2015-May-05 11:32N 40°38' W 074°03'  
Track history (hours):
 
Tides and Currents Weather Stations Pressure Air Temp Water Temp Dewpoint Dewpoint Depression Visibility Wind Speed Wind Dir Waves Ship Positions

Minerva Zen

Last reported at 2015-May-15 10:32 UTC. Time now 2015-May-26 13:48 UTC.
Position N 40°25' W 069°11'.
Warning: this ship's position is 11 days out of date.

Length 183 m; draft 8 m.

Type: Ship. MMSI: 241190000.

Date/timePositionNaut miles runAvg speedWind from/ knotsBaromVisibWave heightAir tempDewpointWater temp
2015-May-15 10:32N 40°25' W 069°11'1010.0
2015-May-15 09:33N 40°25' W 069°24'10 9.8
2015-May-15 08:33N 40°25' W 069°36'10 9.9
2015-May-15 07:34N 40°24' W 069°49'10 9.9
2015-May-15 06:33N 40°24' W 070°02'10 9.8
2015-May-15 05:33N 40°24' W 070°15'1010.0
2015-May-15 04:33N 40°24' W 070°28'1010.2
2015-May-15 03:33N 40°24' W 070°42'1110.6
2015-May-15 02:33N 40°24' W 070°56'10 9.9
2015-May-15 01:33N 40°23' W 071°09'1010.1
2015-May-15 00:34N 40°23' W 071°22'10 9.9
2015-May-14 23:33N 40°23' W 071°35'10 9.9
2015-May-14 22:33N 40°23' W 071°48'10 9.7
2015-May-14 21:33N 40°23' W 072°01'10 9.7
2015-May-14 20:34N 40°23' W 072°13'10 9.8
2015-May-14 19:33N 40°22' W 072°26'1010.0
2015-May-14 18:33N 40°22' W 072°39'10 9.6
2015-May-14 17:33N 40°22' W 072°52'10 9.8
2015-May-14 16:33N 40°22' W 073°05'10 9.9
2015-May-14 15:31N 40°23' W 073°18'1010.0
2015-May-14 14:31N 40°24' W 073°31'8 3.7
2015-May-14 12:13N 40°29' W 073°41'0 0.0
2015-May-14 11:31N 40°29' W 073°41'0 0.0
2015-May-14 10:31N 40°29' W 073°41'0 0.0
2015-May-14 09:31N 40°29' W 073°41'0 0.0
2015-May-14 08:31N 40°29' W 073°41'0 0.0
2015-May-14 07:31N 40°29' W 073°41'0 0.0
2015-May-14 06:28N 40°29' W 073°41'0 0.0
2015-May-14 05:28N 40°29' W 073°41'0 0.0
2015-May-14 04:22N 40°29' W 073°41'0 0.0
2015-May-14 03:31N 40°29' W 073°41'0 0.0
2015-May-14 02:13N 40°29' W 073°41'0 0.0
2015-May-14 01:19N 40°29' W 073°41'0 0.0
2015-May-14 00:16N 40°29' W 073°41'0 0.0
2015-May-13 22:28N 40°29' W 073°41'0 0.0
2015-May-13 21:28N 40°29' W 073°41'0 0.0
2015-May-13 20:31N 40°29' W 073°41'0 0.1
2015-May-13 19:28N 40°29' W 073°41'0 0.0
2015-May-13 18:22N 40°29' W 073°41'0 0.1
2015-May-13 17:28N 40°29' W 073°41'0 0.1
2015-May-13 16:31N 40°29' W 073°41'0 0.0
2015-May-13 15:28N 40°29' W 073°41'0 0.0
2015-May-13 13:04N 40°29' W 073°40'0 0.0
2015-May-13 12:25N 40°29' W 073°40'0 0.0
2015-May-13 11:31N 40°29' W 073°41'0 0.0
2015-May-13 10:19N 40°29' W 073°41'0 0.0
2015-May-13 09:10N 40°29' W 073°41'0 0.0
2015-May-13 08:31N 40°29' W 073°41'0 0.0
2015-May-13 06:13N 40°29' W 073°41'0 0.0
2015-May-13 05:31N 40°29' W 073°41'0 0.0
2015-May-13 04:28N 40°29' W 073°41'0 0.0
2015-May-13 03:31N 40°29' W 073°41'0 0.2
2015-May-13 02:25N 40°29' W 073°41'0 0.0
2015-May-13 01:31N 40°29' W 073°41'0 0.0
2015-May-13 00:31N 40°29' W 073°41'0 0.1
2015-May-12 23:31N 40°29' W 073°41'0 0.0
2015-May-12 22:28N 40°29' W 073°40'0 0.0
2015-May-12 21:28N 40°29' W 073°40'0 0.0
2015-May-12 20:31N 40°29' W 073°41'0 0.1
2015-May-12 19:13N 40°29' W 073°41'0 0.0
2015-May-12 18:31N 40°29' W 073°41'0 0.0
2015-May-12 17:31N 40°29' W 073°41'0 0.0
2015-May-12 16:31N 40°29' W 073°41'0 0.0
2015-May-12 15:31N 40°29' W 073°41'0 0.0
2015-May-12 14:28N 40°29' W 073°41'0 0.0
2015-May-12 13:28N 40°29' W 073°41'0 0.0
2015-May-12 12:25N 40°29' W 073°41'0 0.0
2015-May-12 11:31N 40°29' W 073°41'0 0.0
2015-May-12 10:31N 40°29' W 073°41'0 0.0
2015-May-12 09:31N 40°29' W 073°41'0 0.1
2015-May-12 08:25N 40°29' W 073°41'0 0.0
2015-May-12 07:31N 40°29' W 073°41'0 0.0
2015-May-12 06:28N 40°29' W 073°41'0 0.0
2015-May-12 05:31N 40°29' W 073°41'0 0.0
2015-May-12 04:31N 40°29' W 073°41'0 0.0
2015-May-12 03:31N 40°29' W 073°41'0 0.0
2015-May-12 02:31N 40°29' W 073°41'0 0.0
2015-May-12 01:31N 40°29' W 073°41'0 0.1
2015-May-12 00:29N 40°29' W 073°41'0 0.0
2015-May-11 23:28N 40°29' W 073°41'0 0.0
2015-May-11 22:31N 40°29' W 073°41'0 0.0
2015-May-11 21:28N 40°29' W 073°41'0 0.0
2015-May-11 20:31N 40°29' W 073°41'0 0.0
2015-May-11 19:31N 40°29' W 073°41'0 0.0
2015-May-11 18:31N 40°29' W 073°41'0 0.0
2015-May-11 17:31N 40°29' W 073°41'0 0.0
2015-May-11 16:31N 40°29' W 073°41'0 0.0
2015-May-11 15:31N 40°29' W 073°41'0 0.0
2015-May-11 14:31N 40°29' W 073°41'0 0.0
2015-May-11 13:31N 40°29' W 073°41'0 0.0
2015-May-11 12:31N 40°29' W 073°41'0 0.0
2015-May-11 11:31N 40°29' W 073°41'0 0.0
2015-May-11 10:31N 40°29' W 073°41'0 0.0
2015-May-11 09:28N 40°29' W 073°41'0 0.0
2015-May-11 08:31N 40°29' W 073°41'0 0.0
2015-May-11 07:31N 40°29' W 073°41'0 0.0
2015-May-11 06:31N 40°29' W 073°41'0 0.0
2015-May-11 05:31N 40°29' W 073°41'0 0.0
2015-May-11 04:31N 40°29' W 073°41'0 0.0
2015-May-11 03:31N 40°29' W 073°41'0 0.0
2015-May-11 02:31N 40°29' W 073°41'0 0.0
2015-May-11 01:31N 40°29' W 073°41'0 0.0
2015-May-11 00:31N 40°29' W 073°41'0 0.0
2015-May-10 23:31N 40°29' W 073°41'0 0.0
2015-May-10 22:31N 40°29' W 073°41'0 0.0
2015-May-10 21:28N 40°29' W 073°41'0 0.0
2015-May-10 20:31N 40°29' W 073°41'0 0.0
2015-May-10 19:31N 40°29' W 073°41'0 0.0
2015-May-10 18:31N 40°29' W 073°41'0 0.0
2015-May-10 17:31N 40°29' W 073°41'0 0.0
2015-May-10 16:31N 40°29' W 073°41'0 0.0
2015-May-10 15:31N 40°29' W 073°41'0 0.0
2015-May-10 14:31N 40°29' W 073°41'0 0.0
2015-May-10 13:28N 40°29' W 073°41'0 0.0
2015-May-10 12:28N 40°29' W 073°41'0 0.0
2015-May-10 11:31N 40°29' W 073°41'0 0.0
2015-May-10 10:31N 40°29' W 073°41'0 0.0
2015-May-10 09:31N 40°29' W 073°41'0 0.0
2015-May-10 08:31N 40°29' W 073°41'0 0.0
2015-May-10 07:31N 40°29' W 073°41'0 0.0
2015-May-10 06:31N 40°29' W 073°41'0 0.0
2015-May-10 05:31N 40°29' W 073°41'0 0.0
2015-May-10 04:31N 40°29' W 073°41'0 0.0
2015-May-10 03:31N 40°29' W 073°41'0 0.0
2015-May-10 02:31N 40°29' W 073°41'0 0.0
2015-May-10 01:31N 40°29' W 073°41'0 0.0
2015-May-10 00:28N 40°29' W 073°41'0 0.0
2015-May-09 23:31N 40°29' W 073°41'0 0.0
2015-May-09 22:31N 40°29' W 073°41'0 0.0
2015-May-09 21:31N 40°29' W 073°41'0 0.0
2015-May-09 20:28N 40°29' W 073°41'0 0.0
2015-May-09 19:31N 40°29' W 073°41'0 0.0
2015-May-09 18:31N 40°29' W 073°41'0 0.0
2015-May-09 17:31N 40°29' W 073°41'0 0.0
2015-May-09 16:28N 40°29' W 073°41'0 0.0
2015-May-09 15:31N 40°29' W 073°41'0 0.0
2015-May-09 14:31N 40°29' W 073°41'0 0.0
2015-May-09 13:31N 40°29' W 073°41'0 0.0
2015-May-09 12:31N 40°29' W 073°41'0 0.0
2015-May-09 11:31N 40°29' W 073°41'0 0.0
2015-May-09 10:31N 40°29' W 073°41'0 0.0
2015-May-09 09:31N 40°29' W 073°41'0 0.0
2015-May-09 08:31N 40°29' W 073°41'0 0.0
2015-May-09 07:28N 40°29' W 073°41'0 0.0
2015-May-09 06:31N 40°29' W 073°41'0 0.0
2015-May-09 05:31N 40°29' W 073°41'0 0.0
2015-May-09 04:31N 40°29' W 073°41'0 0.0
2015-May-09 03:31N 40°29' W 073°41'0 0.1
2015-May-09 02:31N 40°29' W 073°41'0 0.0
2015-May-09 01:31N 40°29' W 073°41'0 0.0
2015-May-09 00:31N 40°29' W 073°41'0 0.0
2015-May-08 23:31N 40°29' W 073°41'0 0.0
2015-May-08 22:31N 40°29' W 073°41'0 0.0
2015-May-08 21:31N 40°29' W 073°41'0 0.0
2015-May-08 20:31N 40°29' W 073°41'0 0.0
2015-May-08 19:31N 40°29' W 073°41'0 0.0
2015-May-08 18:31N 40°29' W 073°41'0 0.0
2015-May-08 17:31N 40°29' W 073°41'0 0.0
2015-May-08 16:31N 40°29' W 073°41'0 0.0
2015-May-08 15:31N 40°29' W 073°41'0 0.0
2015-May-08 14:31N 40°29' W 073°41'0 0.0
2015-May-08 13:34N 40°29' W 073°41'0 0.0
2015-May-08 12:31N 40°29' W 073°41'0 0.0
2015-May-08 11:31N 40°29' W 073°41'0 0.0
2015-May-08 10:28N 40°29' W 073°41'0 0.0
2015-May-08 09:31N 40°29' W 073°41'0 0.1
2015-May-08 08:31N 40°29' W 073°41'0 0.1
2015-May-08 07:31N 40°29' W 073°41'0 0.0
2015-May-08 06:33N 40°29' W 073°41'0 0.0
2015-May-08 05:34N 40°29' W 073°41'0 0.1
2015-May-08 04:33N 40°29' W 073°41'0 0.0
2015-May-08 03:31N 40°29' W 073°41'0 0.1
2015-May-08 02:31N 40°29' W 073°41'0 0.0
2015-May-08 01:31N 40°29' W 073°41'0 0.0
2015-May-08 00:32N 40°29' W 073°41'0 0.0
2015-May-07 23:31N 40°29' W 073°41'0 0.0
2015-May-07 22:31N 40°29' W 073°41'0 0.0
2015-May-07 21:31N 40°29' W 073°41'0 0.1
2015-May-07 20:31N 40°29' W 073°41'0 0.0
2015-May-07 19:31N 40°29' W 073°41'0 0.0
2015-May-07 18:31N 40°29' W 073°41'0 0.0
2015-May-07 17:31N 40°29' W 073°41'0 0.1
2015-May-07 16:31N 40°29' W 073°41'0 0.0
2015-May-07 15:31N 40°29' W 073°41'0 0.0
2015-May-07 14:31N 40°29' W 073°41'0 0.0
2015-May-07 13:31N 40°29' W 073°41'0 0.0
2015-May-07 12:31N 40°29' W 073°41'0 0.0
2015-May-07 11:31N 40°29' W 073°41'0 0.0
2015-May-07 10:28N 40°29' W 073°41'0 0.1
2015-May-07 09:31N 40°29' W 073°41'0 0.1
2015-May-07 08:31N 40°29' W 073°41'0 0.0
2015-May-07 07:31N 40°29' W 073°41'0 0.0
2015-May-07 06:31N 40°29' W 073°41'0 0.0
2015-May-07 05:31N 40°29' W 073°41'0 0.0
2015-May-07 04:31N 40°29' W 073°41'0 0.1
2015-May-07 03:31N 40°29' W 073°41'0 0.1
2015-May-07 02:31N 40°29' W 073°41'0 0.0
2015-May-07 01:31N 40°29' W 073°41'0 0.0
2015-May-07 00:31N 40°29' W 073°41'0 0.0
2015-May-06 23:31N 40°29' W 073°41'0 0.0
2015-May-06 22:31N 40°29' W 073°41'0 0.0
2015-May-06 21:31N 40°29' W 073°41'0 0.0
2015-May-06 20:31N 40°29' W 073°41'0 0.0
2015-May-06 19:31N 40°29' W 073°41'0 0.0
2015-May-06 18:31N 40°29' W 073°41'0 0.1
2015-May-06 17:22N 40°29' W 073°41'0 0.1
2015-May-06 16:31N 40°29' W 073°41'6 6.0
2015-May-06 15:33N 40°27' W 073°48'1211.7
2015-May-06 14:33N 40°33' W 074°02'7 7.0
2015-May-06 13:33N 40°39' W 074°06'0 0.0
2015-May-06 12:30N 40°39' W 074°06'0 0.0
2015-May-06 11:24N 40°39' W 074°06'0 0.0
2015-May-06 10:33N 40°39' W 074°06'0 0.0
2015-May-06 09:33N 40°39' W 074°06'0 0.0
2015-May-06 08:30N 40°39' W 074°06'0 0.0
2015-May-06 07:33N 40°39' W 074°06'0 0.0
2015-May-06 06:33N 40°39' W 074°06'0 0.0
2015-May-06 05:33N 40°39' W 074°06'0 0.0
2015-May-06 04:33N 40°39' W 074°06'0 0.0
2015-May-06 03:33N 40°39' W 074°06'0 0.0
2015-May-06 02:30N 40°39' W 074°06'0 0.0
2015-May-06 01:33N 40°39' W 074°06'0 0.0
2015-May-06 00:18N 40°39' W 074°06'0 0.0
2015-May-05 23:30N 40°39' W 074°06'0 0.0
2015-May-05 22:30N 40°39' W 074°06'0 0.0
2015-May-05 21:24N 40°39' W 074°06'0 0.0
2015-May-05 20:30N 40°39' W 074°06'0 0.0
2015-May-05 19:24N 40°39' W 074°06'0 0.0
2015-May-05 18:30N 40°39' W 074°06'0 0.0
2015-May-05 17:33N 40°39' W 074°06'2 2.4
2015-May-05 16:32N 40°38' W 074°03'0 0.2
2015-May-05 15:32N 40°39' W 074°03'0 0.0
2015-May-05 14:32N 40°39' W 074°03'0 0.0
2015-May-05 13:32N 40°39' W 074°03'0 0.0
2015-May-05 12:32N 40°39' W 074°03'0 0.1
2015-May-05 11:32N 40°38' W 074°03'  

Dump ship's entire track history